createdAt,value
2018-12-19T00:00:38.590Z,5.90
2018-12-19T00:03:08.550Z,5.90
2018-12-19T00:05:38.565Z,5.90
2018-12-19T00:08:08.166Z,5.90
2018-12-19T00:10:39.423Z,5.90
2018-12-19T00:13:14.341Z,5.90
2018-12-19T00:15:50.451Z,5.90
2018-12-19T00:18:23.367Z,5.90
2018-12-19T00:20:53.008Z,5.80
2018-12-19T00:23:23.847Z,5.80
2018-12-19T00:25:54.529Z,5.80
2018-12-19T00:28:24.616Z,5.80
2018-12-19T00:30:55.994Z,5.80
2018-12-19T00:33:26.933Z,5.70
2018-12-19T00:35:57.328Z,5.70
2018-12-19T00:38:27.287Z,5.80
2018-12-19T00:40:57.029Z,5.80
2018-12-19T00:43:29.726Z,5.80
2018-12-19T00:46:01.302Z,5.80
2018-12-19T00:48:33.088Z,5.80
2018-12-19T00:51:07.341Z,5.80
2018-12-19T00:53:37.813Z,5.80
2018-12-19T00:56:12.152Z,5.80
2018-12-19T00:58:42.964Z,5.80
2018-12-19T01:01:14.791Z,5.80
2018-12-19T01:03:52.743Z,5.80
2018-12-19T01:06:24.480Z,5.90
2018-12-19T01:08:59.418Z,5.80
2018-12-19T01:11:38.387Z,5.90
2018-12-19T01:14:08.569Z,5.90
2018-12-19T01:16:39.213Z,5.90
2018-12-19T01:19:09.266Z,5.90
2018-12-19T01:21:39.815Z,5.90
2018-12-19T01:24:09.642Z,5.90
2018-12-19T01:26:39.428Z,5.90
2018-12-19T01:29:09.471Z,5.90
2018-12-19T01:31:39.481Z,5.90
2018-12-19T01:34:10.276Z,6.00
2018-12-19T01:36:40.011Z,6.00
2018-12-19T01:39:09.691Z,6.00
2018-12-19T01:41:39.326Z,6.00
2018-12-19T01:44:09.400Z,6.00
2018-12-19T01:46:39.094Z,6.00
2018-12-19T01:49:08.580Z,5.90
2018-12-19T01:51:38.499Z,6.00
2018-12-19T01:54:08.001Z,6.00
2018-12-19T01:56:37.523Z,6.00
2018-12-19T01:59:07.358Z,6.00
2018-12-19T02:01:37.014Z,6.10
2018-12-19T02:04:06.528Z,6.00
2018-12-19T02:06:37.510Z,6.00
2018-12-19T02:09:14.409Z,6.00
2018-12-19T02:12:06.548Z,6.00
2018-12-19T02:14:48.789Z,6.00
2018-12-19T02:17:18.578Z,6.00
2018-12-19T02:19:57.431Z,6.00
2018-12-19T02:22:27.982Z,6.00
2018-12-19T02:24:58.031Z,6.00
2018-12-19T02:27:40.920Z,6.00
2018-12-19T02:30:13.364Z,6.00
2018-12-19T02:32:48.558Z,6.00
2018-12-19T02:35:26.133Z,6.00
2018-12-19T02:37:57.038Z,6.00
2018-12-19T02:40:28.073Z,6.10
2018-12-19T02:43:00.734Z,6.10
2018-12-19T02:45:38.053Z,6.00
2018-12-19T02:48:13.372Z,6.00
2018-12-19T02:50:44.209Z,6.00
2018-12-19T02:53:15.412Z,6.00
2018-12-19T02:55:45.348Z,6.00
2018-12-19T02:58:16.273Z,6.00
2018-12-19T03:00:47.480Z,6.00
2018-12-19T03:03:19.917Z,6.00
2018-12-19T03:05:52.561Z,6.00
2018-12-19T03:08:22.144Z,6.00
2018-12-19T03:10:52.066Z,6.00
2018-12-19T03:13:21.575Z,6.10
2018-12-19T03:15:53.669Z,6.10
2018-12-19T03:18:23.572Z,6.20
2018-12-19T03:21:23.978Z,6.20
2018-12-19T03:23:53.779Z,6.20
2018-12-19T03:26:23.706Z,6.30
2018-12-19T03:28:53.562Z,6.30
2018-12-19T03:31:23.327Z,6.30
2018-12-19T03:33:52.756Z,6.30
2018-12-19T03:36:22.156Z,6.30
2018-12-19T03:38:51.765Z,6.40
2018-12-19T03:41:22.075Z,6.40
2018-12-19T03:43:51.686Z,6.40
2018-12-19T03:46:21.699Z,6.30
2018-12-19T03:48:57.634Z,6.40
2018-12-19T03:51:27.329Z,6.40
2018-12-19T03:53:57.324Z,6.40
2018-12-19T03:56:27.279Z,6.40
2018-12-19T03:58:56.835Z,6.40
2018-12-19T04:01:27.814Z,6.40
2018-12-19T04:03:59.061Z,6.40
2018-12-19T04:06:29.156Z,6.40
2018-12-19T04:08:58.612Z,6.40
2018-12-19T04:11:28.384Z,6.40
2018-12-19T04:13:58.067Z,6.30
2018-12-19T04:16:27.931Z,6.10
2018-12-19T04:18:57.435Z,6.00
2018-12-19T04:21:27.171Z,6.00
2018-12-19T04:23:56.618Z,5.90
2018-12-19T04:26:26.634Z,5.90
2018-12-19T04:28:56.298Z,6.00
2018-12-19T04:31:26.087Z,6.00
2018-12-19T04:33:56.310Z,6.00
2018-12-19T04:36:25.739Z,6.10
2018-12-19T04:38:55.515Z,6.10
2018-12-19T04:41:26.047Z,6.10
2018-12-19T04:43:55.530Z,6.00
2018-12-19T04:46:25.055Z,6.00
2018-12-19T04:48:54.549Z,6.00
2018-12-19T04:51:24.204Z,6.00
2018-12-19T04:53:53.812Z,6.10
2018-12-19T04:56:24.149Z,6.10
2018-12-19T04:58:53.569Z,6.10
2018-12-19T05:01:23.075Z,6.10
2018-12-19T05:03:52.986Z,6.20
2018-12-19T05:06:22.430Z,6.20
2018-12-19T05:08:52.238Z,6.20
2018-12-19T05:11:22.414Z,6.20
2018-12-19T05:13:51.948Z,6.20
2018-12-19T05:16:22.295Z,6.30
2018-12-19T05:18:51.791Z,6.30
2018-12-19T05:21:21.536Z,6.40
2018-12-19T05:23:51.067Z,6.40
2018-12-19T05:26:20.673Z,6.50
2018-12-19T05:28:51.286Z,6.50
2018-12-19T05:31:20.812Z,6.60
2018-12-19T05:33:52.814Z,6.60
2018-12-19T05:36:26.469Z,6.60
2018-12-19T05:38:56.084Z,6.70
2018-12-19T05:41:25.508Z,6.70
2018-12-19T05:43:54.981Z,6.70
2018-12-19T05:46:24.451Z,6.80
2018-12-19T05:48:53.960Z,6.80
2018-12-19T05:51:23.376Z,6.80
2018-12-19T05:53:52.838Z,6.80
2018-12-19T05:56:22.508Z,6.90
2018-12-19T05:58:53.606Z,6.90
2018-12-19T06:01:24.112Z,6.90
2018-12-19T06:03:53.663Z,7.00
2018-12-19T06:06:23.186Z,7.00
2018-12-19T06:08:52.914Z,7.10
2018-12-19T06:11:22.941Z,7.10
2018-12-19T06:13:52.456Z,7.10
2018-12-19T06:16:21.917Z,7.20
2018-12-19T06:18:51.630Z,7.20
2018-12-19T06:21:21.371Z,7.30
2018-12-19T06:23:50.849Z,7.30
2018-12-19T06:26:21.025Z,7.30
2018-12-19T06:28:50.603Z,7.30
2018-12-19T06:31:25.296Z,7.30
2018-12-19T06:33:56.502Z,7.30
2018-12-19T06:36:26.189Z,7.30
2018-12-19T06:38:55.758Z,7.40
2018-12-19T06:41:25.342Z,7.40
2018-12-19T06:43:54.774Z,7.40
2018-12-19T06:46:24.833Z,7.50
2018-12-19T06:48:54.842Z,7.50
2018-12-19T06:51:24.368Z,7.50
2018-12-19T06:53:54.333Z,7.50
2018-12-19T06:56:24.473Z,7.60
2018-12-19T06:58:54.751Z,7.60
2018-12-19T07:01:25.694Z,7.50
2018-12-19T07:03:55.375Z,7.60
2018-12-19T07:06:26.633Z,7.60
2018-12-19T07:08:59.933Z,7.60
2018-12-19T07:11:31.209Z,7.60
2018-12-19T07:14:00.779Z,7.70
2018-12-19T07:16:30.525Z,7.70
2018-12-19T07:19:00.130Z,7.70
2018-12-19T07:21:30.541Z,7.70
2018-12-19T07:24:00.237Z,7.70
2018-12-19T07:26:29.985Z,7.70
2018-12-19T07:29:00.427Z,7.70
2018-12-19T07:31:30.495Z,7.70
2018-12-19T07:34:00.076Z,7.70
2018-12-19T07:36:30.633Z,7.70
2018-12-19T07:39:07.825Z,7.70
2018-12-19T07:41:38.159Z,7.70
2018-12-19T07:44:09.729Z,7.70
2018-12-19T07:46:41.150Z,7.60
2018-12-19T07:49:14.179Z,7.70
2018-12-19T07:51:44.576Z,7.70
2018-12-19T07:54:18.173Z,7.70
2018-12-19T07:56:47.918Z,7.70
2018-12-19T07:59:18.353Z,7.70
2018-12-19T08:01:50.323Z,7.70
2018-12-19T08:04:22.026Z,7.70
2018-12-19T08:06:53.014Z,7.70
2018-12-19T08:09:22.914Z,7.70
2018-12-19T08:11:52.331Z,7.70
2018-12-19T08:14:23.565Z,7.80
2018-12-19T08:16:53.323Z,7.80
2018-12-19T08:19:22.831Z,7.80
2018-12-19T08:21:55.129Z,7.80
2018-12-19T08:24:24.786Z,7.80
2018-12-19T08:26:54.423Z,7.90
2018-12-19T08:29:25.728Z,7.80
2018-12-19T08:31:55.447Z,7.80
2018-12-19T08:34:26.170Z,7.90
2018-12-19T08:36:56.222Z,8.00
2018-12-19T08:39:25.910Z,8.00
2018-12-19T08:41:58.245Z,8.00
2018-12-19T08:44:29.276Z,8.00
2018-12-19T08:46:58.820Z,8.00
2018-12-19T08:49:28.283Z,8.10
2018-12-19T08:51:59.681Z,8.20
2018-12-19T08:54:30.306Z,8.20
2018-12-19T08:57:01.596Z,8.30
2018-12-19T08:59:31.869Z,8.40
2018-12-19T09:02:02.995Z,8.50
2018-12-19T09:04:34.280Z,8.60
2018-12-19T09:07:04.226Z,8.70
2018-12-19T09:09:33.751Z,8.80
2018-12-19T09:12:05.008Z,8.90
2018-12-19T09:14:34.298Z,9.00
2018-12-19T09:17:04.279Z,9.00
2018-12-19T09:19:34.606Z,9.20
2018-12-19T09:22:05.446Z,9.20
2018-12-19T09:24:35.917Z,9.30
2018-12-19T09:27:06.356Z,9.30
2018-12-19T09:29:35.829Z,9.30
2018-12-19T09:32:06.140Z,9.40
2018-12-19T09:34:37.251Z,9.40
2018-12-19T09:37:07.567Z,9.50
2018-12-19T09:39:37.373Z,9.50
2018-12-19T09:42:08.749Z,9.60
2018-12-19T09:44:38.610Z,9.50
2018-12-19T09:47:08.122Z,9.50
2018-12-19T09:49:37.614Z,9.50
2018-12-19T09:52:07.335Z,9.60
2018-12-19T09:54:36.828Z,9.60
2018-12-19T09:57:06.621Z,9.70
2018-12-19T09:59:36.974Z,9.90
2018-12-19T10:02:06.906Z,10.00
2018-12-19T10:04:36.630Z,10.10
2018-12-19T10:07:06.394Z,10.10
2018-12-19T10:09:36.420Z,10.00
2018-12-19T10:12:05.866Z,10.10
2018-12-19T10:14:35.785Z,10.00
2018-12-19T10:17:05.459Z,9.90
2018-12-19T10:19:36.681Z,9.90
2018-12-19T10:22:06.967Z,9.80
2018-12-19T10:24:42.442Z,9.80
2018-12-19T10:27:16.699Z,9.80
2018-12-19T10:29:46.603Z,9.80
2018-12-19T10:32:16.476Z,9.80
2018-12-19T10:34:46.357Z,9.90
2018-12-19T10:37:16.579Z,9.80
2018-12-19T10:39:46.795Z,9.90
2018-12-19T10:42:16.294Z,10.00
2018-12-19T10:44:45.970Z,10.00
2018-12-19T10:47:16.154Z,10.10
2018-12-19T10:49:57.111Z,10.10
2018-12-19T10:52:34.131Z,10.10
2018-12-19T10:55:06.757Z,10.20
2018-12-19T10:57:36.755Z,10.20
2018-12-19T11:00:12.221Z,10.30
2018-12-19T11:02:44.726Z,10.30
2018-12-19T11:05:15.935Z,10.40
2018-12-19T11:07:50.085Z,10.50
2018-12-19T11:10:28.956Z,10.50
2018-12-19T11:13:05.049Z,10.60
2018-12-19T11:15:35.256Z,10.60
2018-12-19T11:18:05.994Z,10.70
2018-12-19T11:20:38.022Z,10.70
2018-12-19T11:23:14.990Z,10.70
2018-12-19T11:25:45.558Z,10.80
2018-12-19T11:28:15.441Z,10.90
2018-12-19T11:30:49.458Z,10.90
2018-12-19T11:33:20.402Z,11.10
2018-12-19T11:35:51.799Z,11.20
2018-12-19T11:38:22.513Z,11.30
2018-12-19T11:40:51.896Z,11.30
2018-12-19T11:43:21.702Z,11.40
2018-12-19T11:45:58.007Z,11.50
2018-12-19T11:48:28.690Z,11.50
2018-12-19T11:51:06.280Z,11.50
2018-12-19T11:53:39.052Z,11.40
2018-12-19T11:56:08.542Z,11.30
2018-12-19T11:58:38.418Z,11.30
2018-12-19T12:01:09.418Z,11.30
2018-12-19T12:03:39.328Z,11.30
2018-12-19T12:06:09.408Z,11.30
2018-12-19T12:08:41.957Z,11.20
2018-12-19T12:11:11.965Z,11.20
2018-12-19T12:13:42.688Z,11.20
2018-12-19T12:16:12.282Z,11.30
2018-12-19T12:18:42.109Z,11.30
2018-12-19T12:21:12.712Z,11.40
2018-12-19T12:23:47.309Z,11.40
2018-12-19T12:26:17.645Z,11.40
2018-12-19T12:28:48.036Z,11.50
2018-12-19T12:31:17.854Z,11.50
2018-12-19T12:34:01.567Z,11.50
2018-12-19T12:36:31.528Z,11.50
2018-12-19T12:39:03.058Z,11.50
2018-12-19T12:41:33.651Z,11.60
2018-12-19T12:44:04.598Z,11.60
2018-12-19T12:46:36.035Z,11.80
2018-12-19T12:49:08.520Z,12.00
2018-12-19T12:51:38.230Z,12.20
2018-12-19T12:54:13.341Z,12.20
2018-12-19T12:56:43.902Z,12.10
2018-12-19T12:59:15.688Z,12.00
2018-12-19T13:01:48.908Z,12.00
2018-12-19T13:04:19.269Z,12.00
2018-12-19T13:06:50.830Z,11.90
2018-12-19T13:09:20.946Z,11.90
2018-12-19T13:11:51.893Z,11.80
2018-12-19T13:14:22.763Z,11.80
2018-12-19T13:16:57.383Z,11.70
2018-12-19T13:19:30.935Z,11.70
2018-12-19T13:22:01.661Z,11.70
2018-12-19T13:24:37.959Z,11.80
2018-12-19T13:33:33.205Z,11.80
2018-12-19T13:41:43.770Z,11.90
2018-12-19T13:44:13.807Z,11.90
2018-12-19T13:46:43.454Z,11.80
2018-12-19T13:49:14.555Z,11.70
2018-12-19T13:51:45.420Z,11.70
2018-12-19T13:54:16.304Z,11.50
2018-12-19T13:56:46.448Z,11.50
2018-12-19T13:59:16.463Z,11.50
2018-12-19T14:01:47.494Z,11.30
2018-12-19T14:04:17.233Z,11.20
2018-12-19T14:06:48.611Z,11.20
2018-12-19T14:09:19.565Z,11.20
2018-12-19T14:11:50.846Z,11.20
2018-12-19T14:14:20.674Z,11.20
2018-12-19T14:16:50.836Z,11.20
2018-12-19T14:19:21.047Z,11.10
2018-12-19T14:21:50.807Z,11.10
2018-12-19T14:24:21.899Z,11.00
2018-12-19T14:26:53.304Z,11.00
2018-12-19T14:29:28.868Z,11.00
2018-12-19T14:31:59.138Z,11.00
2018-12-19T14:34:32.678Z,11.00
2018-12-19T14:37:03.385Z,11.00
2018-12-19T14:39:40.056Z,11.00
2018-12-19T14:42:21.261Z,11.00
2018-12-19T14:44:53.900Z,11.00
2018-12-19T14:47:24.343Z,11.00
2018-12-19T14:49:57.159Z,11.00
2018-12-19T14:52:27.456Z,11.00
2018-12-19T14:55:00.408Z,11.00
2018-12-19T14:57:33.581Z,11.10
2018-12-19T15:00:21.143Z,11.10
2018-12-19T15:06:18.010Z,11.00
2018-12-19T15:08:51.647Z,11.00
2018-12-19T15:11:21.772Z,11.00
2018-12-19T15:13:54.140Z,10.90
2018-12-19T15:16:23.996Z,10.90
2018-12-19T15:18:54.393Z,10.90
2018-12-19T15:21:24.811Z,10.90
2018-12-19T15:23:54.888Z,10.90
2018-12-19T15:26:26.193Z,10.80
2018-12-19T15:28:55.306Z,10.80
2018-12-19T15:31:24.704Z,10.90
2018-12-19T15:34:00.487Z,10.90
2018-12-19T15:40:09.846Z,11.00
2018-12-19T15:42:42.790Z,11.00
2018-12-19T15:45:12.392Z,11.10
2018-12-19T15:47:42.228Z,11.10
2018-12-19T15:50:11.478Z,11.10
2018-12-19T15:52:40.404Z,11.10
2018-12-19T15:55:09.388Z,11.10
2018-12-19T15:57:38.342Z,11.10
2018-12-19T16:00:10.080Z,11.10
2018-12-19T16:02:39.542Z,11.10
2018-12-19T16:05:13.029Z,11.10
2018-12-19T16:07:42.028Z,11.10
2018-12-19T16:10:11.498Z,11.10
2018-12-19T16:12:43.285Z,11.10
2018-12-19T16:15:13.002Z,11.10
2018-12-19T16:17:43.637Z,11.10
2018-12-19T16:22:55.243Z,11.10
2018-12-19T16:25:24.306Z,11.10
2018-12-19T16:27:55.417Z,11.10
2018-12-19T16:30:24.871Z,11.10
2018-12-19T16:32:55.261Z,11.10
2018-12-19T16:35:26.203Z,11.10
2018-12-19T16:37:57.278Z,11.10
2018-12-19T16:40:26.409Z,11.10
2018-12-19T16:42:55.717Z,11.00
2018-12-19T16:45:26.354Z,11.00
2018-12-19T16:47:58.691Z,11.10
2018-12-19T16:50:32.654Z,11.00
2018-12-19T16:53:02.792Z,11.00
2018-12-19T16:55:33.902Z,11.00
2018-12-19T16:58:09.076Z,11.00
2018-12-19T17:00:41.756Z,11.00
2018-12-19T17:03:12.972Z,10.90
2018-12-19T17:05:50.711Z,10.80
2018-12-19T17:08:20.727Z,10.80
2018-12-19T17:10:51.409Z,10.80
2018-12-19T17:14:57.581Z,10.80
2018-12-19T17:17:27.434Z,10.70
2018-12-19T17:19:57.409Z,11.00
2018-12-19T17:22:30.788Z,11.00
2018-12-19T17:25:01.173Z,11.00
2018-12-19T17:27:32.336Z,10.90
2018-12-19T17:30:02.408Z,10.80
2018-12-19T17:32:32.347Z,10.90
2018-12-19T17:35:11.470Z,10.90
2018-12-19T17:44:11.372Z,11.10
2018-12-19T17:46:47.091Z,11.10
2018-12-19T17:49:26.727Z,11.10
2018-12-19T17:52:09.659Z,11.10
2018-12-19T17:57:44.398Z,10.90
2018-12-19T18:00:13.878Z,10.90
2018-12-19T18:02:42.842Z,10.90
2018-12-19T18:05:14.149Z,11.00
2018-12-19T18:07:47.845Z,11.00
2018-12-19T18:10:21.710Z,11.00
2018-12-19T18:12:53.676Z,10.90
2018-12-19T18:15:24.940Z,11.00
2018-12-19T18:17:57.147Z,11.00
2018-12-19T18:20:28.179Z,10.90
2018-12-19T18:22:58.199Z,10.90
2018-12-19T18:25:29.225Z,10.90
2018-12-19T18:28:00.227Z,10.80
2018-12-19T18:30:29.746Z,10.60
2018-12-19T18:33:00.786Z,10.60
2018-12-19T18:35:29.692Z,10.60
2018-12-19T18:38:02.458Z,10.60
2018-12-19T18:40:31.493Z,10.60
2018-12-19T18:43:00.768Z,10.70
2018-12-19T18:45:30.992Z,10.70
2018-12-19T18:48:04.875Z,10.60
2018-12-19T18:50:35.188Z,10.60
2018-12-19T18:53:10.390Z,10.60
2018-12-19T18:55:40.382Z,10.60
2018-12-19T18:58:10.880Z,10.60
2018-12-19T19:00:43.578Z,10.50
2018-12-19T19:03:15.125Z,10.70
2018-12-19T19:05:45.733Z,10.70
2018-12-19T19:08:17.193Z,10.70
2018-12-19T19:10:49.656Z,10.80
2018-12-19T19:13:19.889Z,10.80
2018-12-19T19:15:53.984Z,10.80
2018-12-19T19:18:25.298Z,10.90
2018-12-19T19:20:54.918Z,10.90
2018-12-19T19:23:26.661Z,10.90
2018-12-19T19:25:56.418Z,10.80
2018-12-19T19:28:36.378Z,10.80
2018-12-19T19:33:19.956Z,10.70
2018-12-19T19:36:23.023Z,10.70
2018-12-19T19:38:58.875Z,10.60
2018-12-19T19:41:32.469Z,10.60
2018-12-19T19:44:01.524Z,10.50
2018-12-19T19:46:32.367Z,10.50
2018-12-19T19:49:08.248Z,10.40
2018-12-19T19:54:43.482Z,10.40
2018-12-19T19:57:13.019Z,10.40
2018-12-19T19:59:45.183Z,10.50
2018-12-19T20:02:20.586Z,10.50
2018-12-19T20:04:50.323Z,10.50
2018-12-19T20:07:25.170Z,10.40
2018-12-19T20:10:37.670Z,10.40
2018-12-19T20:13:24.899Z,10.50
2018-12-19T20:15:55.541Z,10.40
2018-12-19T20:19:02.354Z,10.50
2018-12-19T20:21:59.752Z,10.50
2018-12-19T20:24:51.468Z,10.30
2018-12-19T20:27:52.937Z,10.40
2018-12-19T20:30:23.610Z,10.40
2018-12-19T20:35:50.928Z,10.20
2018-12-19T20:38:20.350Z,10.10
2018-12-19T20:40:51.280Z,10.10
2018-12-19T20:43:21.291Z,10.00
2018-12-19T20:45:51.448Z,10.00
2018-12-19T20:48:23.931Z,10.00
2018-12-19T20:50:54.315Z,9.90
2018-12-19T20:53:24.766Z,9.80
2018-12-19T20:55:55.545Z,9.80
2018-12-19T20:58:28.803Z,9.80
2018-12-19T21:00:58.206Z,9.70
2018-12-19T21:03:39.169Z,9.70
2018-12-19T21:06:26.441Z,9.80
2018-12-19T21:08:59.130Z,9.90
2018-12-19T21:11:28.279Z,10.00
2018-12-19T21:14:13.684Z,10.00
2018-12-19T21:16:54.544Z,10.00
2018-12-19T21:19:27.209Z,10.10
2018-12-19T21:22:00.343Z,10.10
2018-12-19T21:24:30.261Z,10.10
2018-12-19T21:27:01.409Z,10.10
2018-12-19T21:29:33.174Z,10.10
2018-12-19T21:32:04.250Z,10.00
2018-12-19T21:34:33.802Z,9.90
2018-12-19T21:37:05.821Z,9.90
2018-12-19T21:39:38.310Z,9.90
2018-12-19T21:42:07.819Z,9.90
2018-12-19T21:44:38.426Z,9.80
2018-12-19T21:47:12.241Z,9.60
2018-12-19T21:49:44.540Z,9.60
2018-12-19T21:52:14.254Z,9.70
2018-12-19T21:54:50.439Z,9.70
2018-12-19T21:57:22.843Z,9.80
2018-12-19T21:59:54.461Z,9.80
2018-12-19T22:02:23.665Z,9.80
2018-12-19T22:04:53.828Z,9.80
2018-12-19T22:07:22.981Z,9.90
2018-12-19T22:09:52.385Z,10.00
2018-12-19T22:12:25.455Z,9.90
2018-12-19T22:15:01.827Z,9.90
2018-12-19T22:19:37.246Z,9.90
2018-12-19T22:22:06.203Z,9.90
2018-12-19T22:24:38.385Z,9.60
2018-12-19T22:27:07.423Z,9.50
2018-12-19T22:29:36.656Z,9.40
2018-12-19T22:32:08.339Z,9.30
2018-12-19T22:34:43.107Z,9.20
2018-12-19T22:37:20.506Z,9.10
2018-12-19T22:39:55.093Z,9.00
2018-12-19T22:42:26.624Z,8.90
2018-12-19T22:44:58.645Z,8.90
2018-12-19T22:47:29.103Z,8.80
2018-12-19T22:49:58.170Z,8.70
2018-12-19T22:52:27.292Z,8.70
2018-12-19T22:54:56.337Z,8.60
2018-12-19T22:57:30.270Z,8.60
2018-12-19T23:00:00.802Z,8.50
2018-12-19T23:04:41.155Z,8.50
2018-12-19T23:07:16.112Z,8.50
2018-12-19T23:09:47.998Z,8.40
2018-12-19T23:12:20.696Z,8.30
2018-12-19T23:14:54.964Z,8.30
2018-12-19T23:17:33.427Z,8.20
2018-12-19T23:20:03.487Z,8.20
2018-12-19T23:22:33.480Z,8.20
2018-12-19T23:25:04.076Z,8.10
2018-12-19T23:27:34.658Z,8.10
2018-12-19T23:30:06.923Z,8.10
2018-12-19T23:32:44.923Z,8.10
2018-12-19T23:35:14.104Z,8.10
2018-12-19T23:37:45.876Z,8.10
2018-12-19T23:40:18.454Z,8.10
2018-12-19T23:42:47.714Z,8.10
2018-12-19T23:45:17.623Z,8.10
2018-12-19T23:47:49.443Z,8.10
2018-12-19T23:50:21.291Z,8.10
2018-12-19T23:52:51.657Z,8.10
2018-12-19T23:55:20.812Z,8.10
2018-12-19T23:57:49.971Z,8.10
